Time;durP1;ratioP1;P1;durP2;ratioP2;P2;SDS_P1;SDS_P2;PMS_P1;PMS_P2;Temp;Humidity;BMP_temperature;BMP_pressure;BME280_temperature;BME280_humidity;BME280_pressure;Samples;Min_cycle;Max_cycle;Signal;HPM_P1;HPM_P2
2022/06/12 00:00:59;;;;;;;2.88;0.68;;;16.50;73.30;;;;;;5069084;28;20116;-59
2022/06/12 00:03:27;;;;;;;4.50;0.80;;;16.50;73.20;;;;;;5069050;28;20436;-59
2022/06/12 00:05:56;;;;;;;3.45;1.30;;;16.40;73.10;;;;;;5066167;28;20028;-60
2022/06/12 00:08:23;;;;;;;2.60;0.60;;;16.40;73.00;;;;;;5066633;28;20020;-59
2022/06/12 00:10:50;;;;;;;2.42;0.57;;;16.40;73.00;;;;;;5070342;28;20035;-59
2022/06/12 00:13:21;;;;;;;4.82;0.50;;;16.40;72.90;;;;;;5067359;28;20020;-60
2022/06/12 00:15:47;;;;;;;3.08;0.45;;;16.40;72.90;;;;;;5067909;28;20023;-59
2022/06/12 00:18:13;;;;;;;2.90;0.50;;;16.30;73.30;;;;;;5068659;28;20017;-59
2022/06/12 00:20:39;;;;;;;2.40;0.47;;;16.20;73.80;;;;;;5070657;28;20483;-59
2022/06/12 00:23:10;;;;;;;3.65;0.52;;;16.10;74.30;;;;;;5067477;28;20071;-59
2022/06/12 00:25:36;;;;;;;2.38;0.57;;;16.10;74.60;;;;;;5068931;28;20032;-59
2022/06/12 00:28:01;;;;;;;3.20;0.70;;;16.00;74.80;;;;;;5067561;28;20017;-59
2022/06/12 00:30:27;;;;;;;3.78;0.60;;;16.00;75.20;;;;;;5067999;28;20040;-59
2022/06/12 00:32:54;;;;;;;1.90;0.50;;;15.80;75.70;;;;;;5066953;28;20031;-59
2022/06/12 00:35:34;;;;;;;3.22;0.60;;;15.80;76.30;;;;;;5070082;28;20021;-59
2022/06/12 00:38:00;;;;;;;4.60;0.50;;;15.70;76.50;;;;;;5072637;28;20422;-59
2022/06/12 00:40:26;;;;;;;3.45;0.70;;;15.60;76.80;;;;;;5073619;28;20530;-59
2022/06/12 00:42:56;;;;;;;3.40;0.60;;;15.60;77.00;;;;;;5073317;28;20073;-59
2022/06/12 00:45:47;;;;;;;2.63;0.57;;;15.50;77.10;;;;;;5072873;28;20035;-59
2022/06/12 00:48:23;;;;;;;2.47;1.08;;;15.40;77.40;;;;;;5070588;28;20055;-59
2022/06/12 00:51:16;;;;;;;1.98;0.35;;;15.30;78.00;;;;;;5072085;28;20101;-59
2022/06/12 00:53:49;;;;;;;2.05;0.40;;;15.20;78.50;;;;;;5067862;28;20109;-59
2022/06/12 00:56:25;;;;;;;1.85;0.40;;;15.10;79.00;;;;;;5087167;28;20020;-59
2022/06/12 00:58:55;;;;;;;2.55;0.40;;;15.00;79.40;;;;;;5075007;28;20036;-59
2022/06/12 01:01:23;;;;;;;;;;;14.90;79.60;;;;;;5074045;28;20483;-59
2022/06/12 01:06:34;;;;;;;4.18;0.40;;;14.80;80.10;;;;;;5073349;28;20381;-59
2022/06/12 01:09:08;;;;;;;4.03;0.70;;;14.80;80.10;;;;;;5070495;28;20069;-59
2022/06/12 01:11:35;;;;;;;3.22;0.50;;;14.80;80.10;;;;;;5073108;28;20013;-59
2022/06/12 01:14:02;;;;;;;3.22;0.40;;;14.70;80.20;;;;;;5071130;28;20013;-59
2022/06/12 01:16:27;;;;;;;3.38;0.60;;;14.70;80.50;;;;;;5071028;28;20073;-59
2022/06/12 01:18:55;;;;;;;4.75;1.33;;;14.60;81.20;;;;;;5055399;28;20017;-59
2022/06/12 01:22:05;;;;;;;3.55;0.75;;;14.40;82.50;;;;;;5072487;28;20016;-59
2022/06/12 01:24:54;;;;;;;6.70;1.33;;;14.20;83.10;;;;;;5071572;28;20028;-59
2022/06/12 01:27:44;;;;;;;5.72;1.10;;;14.10;84.30;;;;;;5071675;28;20028;-59
2022/06/12 01:30:19;;;;;;;3.65;0.73;;;14.00;84.60;;;;;;5071464;28;20029;-59
2022/06/12 01:33:01;;;;;;;3.55;0.60;;;13.90;84.90;;;;;;5070033;28;20469;-59
2022/06/12 01:35:44;;;;;;;1.05;0.50;;;14.00;84.80;;;;;;5072290;28;20078;-60
2022/06/12 01:38:24;;;;;;;3.53;1.05;;;14.00;84.50;;;;;;5072429;28;20009;-59
2022/06/12 01:41:12;;;;;;;5.90;1.35;;;14.00;84.70;;;;;;5071140;28;20013;-59
2022/06/12 01:44:12;;;;;;;7.95;1.77;;;13.90;85.90;;;;;;5072989;28;20056;-59
2022/06/12 01:46:54;;;;;;;5.38;1.73;;;13.70;87.50;;;;;;5033612;28;20164;-59
2022/06/12 01:49:24;;;;;;;3.40;1.20;;;13.50;88.70;;;;;;5071126;28;20025;-59
2022/06/12 01:51:56;;;;;;;;;;;13.50;88.90;;;;;;5073155;28;20024;-59
2022/06/12 01:54:39;;;;;;;6.30;1.40;;;13.50;88.90;;;;;;5070548;28;19955;-59
2022/06/12 01:57:14;;;;;;;6.13;1.20;;;13.50;89.70;;;;;;5071248;28;20560;-60
2022/06/12 01:59:52;;;;;;;4.90;1.98;;;13.50;90.00;;;;;;5070139;28;20067;-59
2022/06/12 02:02:37;;;;;;;4.55;1.40;;;13.50;90.00;;;;;;5066935;28;20020;-59
2022/06/12 02:05:17;;;;;;;4.45;1.30;;;13.50;90.00;;;;;;5072625;28;20017;-59
2022/06/12 02:08:14;;;;;;;3.75;1.33;;;13.60;90.00;;;;;;5072081;28;20480;-59
2022/06/12 02:10:47;;;;;;;3.72;1.40;;;13.60;89.70;;;;;;5085206;28;20032;-59
2022/06/12 02:13:25;;;;;;;6.30;1.50;;;13.60;90.10;;;;;;5068040;28;20017;-59
2022/06/12 02:16:05;;;;;;;4.65;1.50;;;13.60;90.20;;;;;;5071036;28;20483;-59
2022/06/12 02:18:51;;;;;;;6.90;2.10;;;13.50;90.50;;;;;;5070738;28;20380;-59
2022/06/12 02:21:32;;;;;;;6.25;1.95;;;13.40;91.10;;;;;;5068805;28;20465;-59
2022/06/12 02:24:09;;;;;;;4.80;1.85;;;13.30;91.60;;;;;;5069063;28;20029;-59
2022/06/12 02:26:44;;;;;;;7.03;1.85;;;13.30;91.80;;;;;;5068124;28;20024;-59
2022/06/12 02:29:22;;;;;;;7.68;2.10;;;13.30;92.10;;;;;;5071212;28;20039;-59
2022/06/12 02:31:51;;;;;;;7.65;2.25;;;13.20;92.50;;;;;;5070766;28;20020;-59
2022/06/12 02:34:25;;;;;;;12.80;1.70;;;13.20;92.80;;;;;;5070263;28;20020;-59
2022/06/12 02:37:06;;;;;;;6.95;1.83;;;13.20;92.90;;;;;;5069292;28;20366;-59
2022/06/12 02:39:41;;;;;;;5.82;1.70;;;13.20;93.10;;;;;;5069936;28;20025;-59
2022/06/12 02:42:12;;;;;;;3.58;1.00;;;13.20;93.10;;;;;;5070224;28;20016;-59
2022/06/12 02:45:05;;;;;;;3.53;1.05;;;13.20;93.10;;;;;;5064244;28;20024;-59
2022/06/12 02:47:34;;;;;;;3.33;0.90;;;13.30;92.90;;;;;;5065978;28;20036;-59
2022/06/12 02:50:01;;;;;;;4.28;0.90;;;13.40;92.90;;;;;;5073857;28;20071;-61
2022/06/12 02:52:55;;;;;;;4.95;1.45;;;13.40;92.80;;;;;;5071539;28;20047;-59
2022/06/12 02:55:44;;;;;;;5.03;1.50;;;13.50;92.70;;;;;;5067779;28;20028;-59
2022/06/12 02:58:25;;;;;;;3.35;1.00;;;13.40;92.70;;;;;;5075989;28;20075;-59
2022/06/12 03:01:17;;;;;;;6.38;1.10;;;13.50;92.60;;;;;;5069759;28;20032;-59
2022/06/12 03:04:00;;;;;;;4.80;1.20;;;13.50;92.60;;;;;;5070122;28;20047;-59
2022/06/12 03:06:27;;;;;;;3.42;0.95;;;13.50;92.80;;;;;;5069651;28;20055;-59
2022/06/12 03:08:58;;;;;;;3.13;1.00;;;13.40;92.90;;;;;;5067656;28;20020;-59
2022/06/12 03:11:35;;;;;;;6.88;1.30;;;13.40;93.00;;;;;;5068354;28;20077;-59
2022/06/12 03:14:01;;;;;;;3.20;1.00;;;13.40;93.10;;;;;;5068284;28;20049;-59
2022/06/12 03:16:30;;;;;;;3.88;1.00;;;13.40;93.30;;;;;;5066617;28;20580;-59
2022/06/12 03:19:03;;;;;;;4.35;1.17;;;13.40;93.40;;;;;;5068398;28;20035;-59
2022/06/12 03:21:50;;;;;;;6.82;2.00;;;13.40;93.40;;;;;;5068739;28;20033;-59
2022/06/12 03:24:30;;;;;;;8.55;1.98;;;13.40;93.40;;;;;;5068429;28;20020;-59
2022/06/12 03:27:22;;;;;;;8.95;1.80;;;13.30;93.70;;;;;;5067743;28;20027;-59
2022/06/12 03:29:58;;;;;;;5.65;1.35;;;13.20;94.00;;;;;;5070297;28;20603;-59
2022/06/12 03:32:30;;;;;;;9.88;1.70;;;13.20;94.10;;;;;;5068205;28;20016;-59
2022/06/12 03:35:01;;;;;;;5.47;1.40;;;13.30;94.20;;;;;;5064846;28;20332;-58
2022/06/12 03:37:34;;;;;;;8.15;1.92;;;13.20;94.30;;;;;;5070304;28;20424;-59
2022/06/12 03:40:26;;;;;;;6.45;2.20;;;13.20;94.50;;;;;;5102360;28;20017;-59
2022/06/12 03:43:21;;;;;;;5.68;1.67;;;13.20;94.70;;;;;;5085181;28;20023;-59
2022/06/12 03:46:13;;;;;;;6.30;1.73;;;13.20;94.70;;;;;;5054282;28;20507;-59
2022/06/12 03:48:48;;;;;;;8.65;2.22;;;13.30;94.90;;;;;;5071009;28;20024;-58
2022/06/12 03:51:23;;;;;;;6.00;1.75;;;13.20;95.20;;;;;;5067413;28;20016;-59
2022/06/12 03:53:51;;;;;;;3.70;1.48;;;13.20;95.20;;;;;;5069470;28;20127;-59
2022/06/12 03:59:27;;;;;;;4.00;1.45;;;13.30;95.20;;;;;;5068369;28;20082;-59
2022/06/12 04:01:53;;;;;;;5.70;1.60;;;13.30;95.20;;;;;;5070059;28;20075;-59
2022/06/12 04:04:21;;;;;;;3.80;1.60;;;13.30;95.20;;;;;;5073393;28;20016;-59
2022/06/12 04:06:48;;;;;;;6.70;1.60;;;13.30;95.20;;;;;;5074424;28;20375;-59
2022/06/12 04:09:17;;;;;;;6.25;1.73;;;13.30;95.20;;;;;;5066878;28;20472;-59
2022/06/12 04:11:50;;;;;;;10.27;3.30;;;13.40;95.20;;;;;;5071886;28;20056;-59
2022/06/12 04:14:19;;;;;;;6.90;1.85;;;13.40;95.20;;;;;;5074697;28;20035;-59
2022/06/12 04:16:48;;;;;;;4.47;1.80;;;13.40;95.20;;;;;;5073405;28;20021;-59
2022/06/12 04:19:21;;;;;;;2.80;1.25;;;13.40;95.20;;;;;;5070747;28;20405;-59
2022/06/12 04:22:09;;;;;;;5.90;1.58;;;13.50;95.20;;;;;;5072471;28;20025;-59
2022/06/12 04:24:52;;;;;;;2.63;1.17;;;13.50;95.10;;;;;;5068201;28;20024;-59
2022/06/12 04:27:23;;;;;;;4.38;1.60;;;13.60;95.00;;;;;;5074522;28;20044;-59
2022/06/12 04:29:57;;;;;;;4.07;1.85;;;13.60;95.10;;;;;;5072151;28;20074;-59
2022/06/12 04:32:25;;;;;;;4.93;1.73;;;13.60;95.10;;;;;;5071716;28;20055;-59
2022/06/12 04:34:52;;;;;;;7.55;2.55;;;13.60;95.20;;;;;;5071439;28;20024;-59
2022/06/12 04:37:22;;;;;;;6.18;2.03;;;13.60;95.30;;;;;;5073921;28;20024;-59
2022/06/12 04:39:49;;;;;;;3.13;1.83;;;13.60;95.30;;;;;;5056620;28;20516;-59
2022/06/12 04:42:18;;;;;;;7.65;2.15;;;13.70;95.30;;;;;;5069900;28;20078;-59
2022/06/12 04:44:44;;;;;;;5.68;1.90;;;13.70;95.30;;;;;;5072516;28;20028;-59
2022/06/12 04:47:13;;;;;;;6.82;1.80;;;13.80;95.30;;;;;;5076645;28;20033;-59
2022/06/12 04:49:39;;;;;;;7.75;1.88;;;13.80;95.30;;;;;;5072035;28;20124;-59
2022/06/12 04:52:07;;;;;;;5.82;1.35;;;13.80;95.30;;;;;;5072582;28;20024;-58
2022/06/12 04:54:34;;;;;;;5.03;2.15;;;13.80;95.30;;;;;;5071381;28;20520;-59
2022/06/12 04:57:00;;;;;;;5.32;2.00;;;13.90;95.40;;;;;;5073768;28;20039;-59
2022/06/12 04:59:26;;;;;;;7.25;2.33;;;13.90;95.40;;;;;;5071965;28;20024;-59
2022/06/12 05:01:52;;;;;;;6.68;2.28;;;13.90;95.40;;;;;;5072528;28;20431;-59
2022/06/12 05:04:19;;;;;;;7.35;2.47;;;14.00;95.50;;;;;;5072170;28;20016;-59
2022/06/12 05:06:45;;;;;;;6.90;2.78;;;14.00;95.60;;;;;;5071256;28;20021;-58
2022/06/12 05:09:13;;;;;;;9.05;2.25;;;14.00;95.60;;;;;;5072070;28;20029;-59
2022/06/12 05:11:40;;;;;;;4.82;2.00;;;14.00;95.70;;;;;;5070517;28;20025;-59
2022/06/12 05:14:06;;;;;;;6.63;2.90;;;14.10;95.70;;;;;;5073517;28;20029;-58
2022/06/12 05:16:39;;;;;;;5.90;2.80;;;14.10;95.70;;;;;;5071766;28;20522;-59
2022/06/12 05:19:08;;;;;;;7.68;2.80;;;14.20;95.90;;;;;;5072796;28;20456;-59
2022/06/12 05:21:34;;;;;;;8.32;2.45;;;14.20;96.00;;;;;;5065659;28;20017;-59
2022/06/12 05:24:01;;;;;;;6.75;2.33;;;14.20;96.10;;;;;;5071510;28;20033;-59
2022/06/12 05:26:27;;;;;;;7.82;2.30;;;14.30;96.20;;;;;;5062697;28;20033;-59
2022/06/12 05:28:54;;;;;;;9.15;2.63;;;14.30;96.20;;;;;;5066106;28;20089;-59
2022/06/12 05:31:20;;;;;;;7.05;2.53;;;14.30;96.50;;;;;;5060756;28;20700;-59
2022/06/12 05:33:46;;;;;;;5.40;2.35;;;14.40;96.60;;;;;;5060809;28;20021;-58
2022/06/12 05:36:14;;;;;;;9.93;3.05;;;14.40;96.60;;;;;;5064971;28;20020;-59
2022/06/12 05:38:42;;;;;;;7.72;2.53;;;14.50;96.80;;;;;;5070683;28;20422;-58
2022/06/12 05:41:09;;;;;;;12.45;4.15;;;14.60;97.00;;;;;;5071595;28;20021;-59
2022/06/12 05:43:35;;;;;;;9.23;3.45;;;14.60;97.20;;;;;;5071836;28;20021;-59
2022/06/12 05:46:01;;;;;;;9.10;3.35;;;14.60;97.30;;;;;;5073001;28;20036;-59
2022/06/12 05:48:26;;;;;;;9.65;3.08;;;14.70;97.40;;;;;;5064853;28;20377;-59
2022/06/12 05:50:58;;;;;;;8.50;3.13;;;14.70;97.40;;;;;;5066955;28;20376;-59
2022/06/12 05:53:26;;;;;;;11.30;3.80;;;14.80;97.40;;;;;;5073653;28;20521;-59
2022/06/12 05:55:53;;;;;;;9.60;2.95;;;14.80;97.50;;;;;;5069927;28;20524;-59
2022/06/12 05:58:21;;;;;;;8.43;3.60;;;14.90;97.50;;;;;;5074040;28;20441;-59
2022/06/12 06:00:47;;;;;;;12.93;3.40;;;15.00;97.60;;;;;;5064702;28;20084;-59
2022/06/12 06:03:13;;;;;;;13.18;4.43;;;15.10;97.70;;;;;;5067419;28;20090;-59
2022/06/12 06:05:41;;;;;;;12.43;3.65;;;15.10;97.70;;;;;;5059896;28;20376;-59
2022/06/12 06:08:08;;;;;;;11.32;4.57;;;15.10;97.70;;;;;;5071701;28;20468;-59
2022/06/12 06:10:34;;;;;;;15.65;4.30;;;15.20;97.70;;;;;;5063483;28;20388;-59
2022/06/12 06:13:00;;;;;;;13.50;4.53;;;15.20;97.70;;;;;;5058595;28;20033;-59
2022/06/12 06:15:26;;;;;;;11.07;3.58;;;15.30;97.70;;;;;;5063989;28;20021;-59
2022/06/12 06:17:55;;;;;;;13.00;3.50;;;15.30;97.70;;;;;;5059395;28;20024;-59
2022/06/12 06:20:25;;;;;;;13.52;4.60;;;15.40;97.60;;;;;;5057905;28;20032;-59
2022/06/12 06:22:51;;;;;;;;;;;15.40;97.70;;;;;;5067386;28;20039;-59
2022/06/12 06:25:18;;;;;;;9.30;3.55;;;15.40;97.70;;;;;;5061324;28;19904;-59
2022/06/12 06:27:43;;;;;;;10.55;4.18;;;15.50;97.80;;;;;;5063097;28;20029;-59
2022/06/12 06:30:10;;;;;;;12.65;3.70;;;15.60;97.70;;;;;;5061730;28;20044;-59
2022/06/12 06:32:35;;;;;;;11.23;3.78;;;15.70;97.70;;;;;;5062779;28;20029;-59
2022/06/12 06:35:04;;;;;;;12.88;3.92;;;15.80;97.70;;;;;;5071592;28;20025;-59
2022/06/12 06:37:30;;;;;;;9.52;3.45;;;15.80;97.70;;;;;;5067443;28;20017;-59
2022/06/12 06:39:56;;;;;;;9.77;3.58;;;15.90;97.60;;;;;;5059543;28;20445;-59
2022/06/12 06:42:23;;;;;;;13.68;4.05;;;16.00;97.60;;;;;;5067392;28;20112;-59
2022/06/12 06:47:34;;;;;;;11.25;3.53;;;16.10;97.40;;;;;;5058343;28;20035;-59
2022/06/12 06:49:59;;;;;;;10.73;3.53;;;16.20;97.40;;;;;;5053341;28;20108;-60
2022/06/12 06:52:25;;;;;;;15.75;4.00;;;16.30;97.30;;;;;;5069182;28;20104;-59
2022/06/12 06:54:50;;;;;;;12.82;4.03;;;16.30;97.20;;;;;;5055913;28;20037;-59
2022/06/12 06:57:16;;;;;;;11.70;3.97;;;16.50;97.00;;;;;;5055978;28;20477;-59
2022/06/12 06:59:42;;;;;;;12.45;4.90;;;16.60;96.80;;;;;;5065042;28;20035;-59
2022/06/12 07:02:08;;;;;;;11.70;3.88;;;16.70;96.60;;;;;;5060518;28;20024;-59
2022/06/12 07:04:33;;;;;;;10.75;3.85;;;16.80;96.40;;;;;;5079941;28;20024;-59
2022/06/12 07:06:59;;;;;;;12.35;3.80;;;16.90;96.30;;;;;;5068452;28;20146;-59
2022/06/12 07:09:25;;;;;;;12.48;4.85;;;17.00;96.10;;;;;;5072096;28;20024;-59
2022/06/12 07:11:50;;;;;;;13.02;4.38;;;17.10;95.80;;;;;;5053642;28;20025;-59
2022/06/12 07:14:16;;;;;;;12.57;3.55;;;17.10;95.70;;;;;;5066533;28;20500;-59
2022/06/12 07:16:42;;;;;;;11.75;4.05;;;17.20;95.50;;;;;;5068987;28;20016;-59
2022/06/12 07:19:09;;;;;;;12.30;3.45;;;17.20;95.30;;;;;;5070901;28;20023;-59
2022/06/12 07:21:34;;;;;;;11.52;4.03;;;17.30;95.20;;;;;;5061598;28;20401;-59
2022/06/12 07:24:01;;;;;;;11.40;3.45;;;17.30;95.10;;;;;;5069579;28;20527;-59
2022/06/12 07:26:35;;;;;;;8.95;3.20;;;17.30;95.20;;;;;;5065011;28;20393;-59
2022/06/12 07:29:01;;;;;;;14.38;3.97;;;17.40;95.20;;;;;;5065430;28;20013;-59
2022/06/12 07:31:27;;;;;;;12.23;3.67;;;17.50;94.90;;;;;;5081803;28;20423;-59
2022/06/12 07:33:52;;;;;;;9.52;2.55;;;17.60;94.80;;;;;;5069693;28;20070;-59
2022/06/12 07:36:19;;;;;;;9.40;3.08;;;17.70;94.60;;;;;;5065803;28;20107;-59
2022/06/12 07:38:47;;;;;;;10.52;3.60;;;17.90;94.40;;;;;;5064990;28;20074;-59
2022/06/12 07:41:14;;;;;;;7.95;2.65;;;18.00;94.20;;;;;;5067317;28;20082;-59
2022/06/12 07:43:42;;;;;;;6.45;2.25;;;18.10;93.80;;;;;;5062914;28;20021;-59
2022/06/12 07:46:11;;;;;;;7.60;2.80;;;18.20;93.70;;;;;;5069699;28;20028;-59
2022/06/12 07:48:36;;;;;;;12.07;4.60;;;18.30;93.30;;;;;;5069723;28;20078;-59
2022/06/12 07:51:07;;;;;;;7.07;2.22;;;18.30;93.00;;;;;;5065011;28;20028;-59
2022/06/12 07:53:33;;;;;;;11.57;2.78;;;18.40;92.80;;;;;;5065832;28;20455;-59
2022/06/12 07:56:01;;;;;;;12.35;2.83;;;18.60;92.60;;;;;;5064318;28;20041;-59
2022/06/12 07:58:27;;;;;;;8.90;2.72;;;18.70;92.10;;;;;;5055265;28;20029;-59
2022/06/12 08:00:56;;;;;;;7.82;2.42;;;18.80;91.80;;;;;;5071836;28;20125;-59
2022/06/12 08:03:23;;;;;;;6.97;2.17;;;18.90;91.60;;;;;;5069139;28;20058;-59
2022/06/12 08:05:49;;;;;;;8.93;2.58;;;18.90;91.40;;;;;;5066258;28;20021;-59
2022/06/12 08:08:14;;;;;;;8.40;2.30;;;19.00;91.30;;;;;;5069484;28;20492;-59
2022/06/12 08:10:40;;;;;;;9.40;2.28;;;19.00;91.20;;;;;;5083225;28;20078;-59
2022/06/12 08:13:10;;;;;;;7.05;2.20;;;19.10;91.10;;;;;;5058131;28;20051;-59
2022/06/12 08:15:36;;;;;;;7.88;2.22;;;19.20;90.80;;;;;;5068525;28;20025;-59
2022/06/12 08:18:04;;;;;;;8.10;2.05;;;19.30;90.60;;;;;;5066488;28;20028;-59
2022/06/12 08:20:35;;;;;;;8.75;3.10;;;19.30;90.60;;;;;;5098742;28;20115;-59
2022/06/12 08:23:34;;;;;;;7.82;3.05;;;19.30;90.90;;;;;;5066824;28;20032;-59
2022/06/12 08:26:21;;;;;;;6.93;1.88;;;19.40;90.30;;;;;;5061209;28;20052;-59
2022/06/12 08:28:53;;;;;;;9.10;1.73;;;19.50;90.20;;;;;;5057237;28;20017;-59
2022/06/12 08:31:32;;;;;;;7.22;2.00;;;19.60;90.00;;;;;;5062740;28;20024;-59
2022/06/12 08:34:03;;;;;;;7.43;2.15;;;19.70;89.00;;;;;;5067086;28;20096;-59
2022/06/12 08:36:30;;;;;;;7.38;1.75;;;19.70;89.00;;;;;;5069179;28;20041;-59
2022/06/12 08:38:56;;;;;;;8.18;2.00;;;19.80;88.80;;;;;;5069323;28;20013;-59
2022/06/12 08:41:55;;;;;;;7.50;1.77;;;19.90;88.40;;;;;;5069279;28;20624;-59
2022/06/12 08:44:37;;;;;;;6.53;1.70;;;20.00;87.40;;;;;;5063957;28;20035;-59
2022/06/12 08:47:22;;;;;;;4.95;1.52;;;20.10;86.80;;;;;;5068297;28;20472;-59
2022/06/12 08:50:09;;;;;;;9.50;2.33;;;20.20;86.30;;;;;;5065461;28;20056;-59
2022/06/12 08:52:57;;;;;;;9.82;2.45;;;20.30;86.30;;;;;;5065674;28;20116;-59
2022/06/12 08:56:00;;;;;;;7.83;2.37;;;20.40;85.80;;;;;;5067952;28;20092;-60
2022/06/12 08:58:49;;;;;;;8.35;2.25;;;20.40;85.00;;;;;;5068401;28;20481;-59
2022/06/12 09:01:15;;;;;;;;;;;20.40;84.90;;;;;;5068851;28;20017;-59
2022/06/12 09:03:47;;;;;;;6.25;1.85;;;20.50;85.10;;;;;;5068013;28;19905;-59
2022/06/12 09:06:53;;;;;;;9.20;2.17;;;20.50;84.40;;;;;;5071490;28;20077;-60
2022/06/12 09:09:37;;;;;;;5.95;1.25;;;20.50;83.40;;;;;;5069793;28;20065;-59
2022/06/12 09:12:12;;;;;;;19.83;2.10;;;20.60;82.90;;;;;;5069616;28;20099;-60
2022/06/12 09:15:08;;;;;;;9.43;1.63;;;20.60;81.90;;;;;;5068415;28;20109;-61
2022/06/12 09:18:44;;;;;;;10.48;2.88;;;20.70;81.00;;;;;;5070514;28;20491;-60
2022/06/12 09:21:25;;;;;;;10.45;2.67;;;20.60;80.30;;;;;;5024110;28;20069;-60
2022/06/12 09:23:55;;;;;;;5.03;1.95;;;20.50;80.30;;;;;;5050753;28;20116;-60
2022/06/12 09:26:30;;;;;;;6.70;2.00;;;20.50;80.40;;;;;;5068178;28;20044;-60
2022/06/12 09:28:56;;;;;;;10.77;2.65;;;20.60;80.30;;;;;;5068817;28;20047;-60
2022/06/12 09:31:27;;;;;;;7.82;2.45;;;20.70;79.60;;;;;;5070003;28;20021;-60
2022/06/12 09:34:01;;;;;;;7.97;2.00;;;20.80;79.00;;;;;;5073062;28;20078;-60
2022/06/12 09:36:35;;;;;;;8.88;1.88;;;20.90;77.60;;;;;;5070244;28;20017;-60
2022/06/12 09:39:22;;;;;;;7.63;2.00;;;20.90;76.40;;;;;;5069962;28;20523;-60
2022/06/12 09:42:05;;;;;;;7.38;2.45;;;21.10;76.30;;;;;;5068056;28;20119;-60
2022/06/12 09:44:53;;;;;;;3.97;1.20;;;21.10;74.60;;;;;;5070322;28;20082;-60
2022/06/12 09:47:44;;;;;;;7.22;1.75;;;21.30;75.00;;;;;;5054928;28;20155;-60
2022/06/12 09:50:25;;;;;;;3.38;1.10;;;21.40;73.30;;;;;;5064938;28;20075;-60
2022/06/12 09:53:11;;;;;;;6.75;1.75;;;21.50;72.10;;;;;;5074287;28;20017;-60
2022/06/12 09:55:44;;;;;;;2.85;1.25;;;21.60;72.10;;;;;;5070056;28;20025;-60
2022/06/12 09:58:20;;;;;;;5.32;1.55;;;21.70;71.70;;;;;;5065173;28;20376;-60
2022/06/12 10:01:04;;;;;;;4.63;1.20;;;21.80;70.40;;;;;;5068354;28;20436;-60
2022/06/12 10:03:42;;;;;;;9.77;2.17;;;21.90;70.60;;;;;;5068888;28;20075;-60
2022/06/12 10:06:23;;;;;;;8.77;2.28;;;22.00;70.90;;;;;;5069488;28;20032;-60
2022/06/12 10:09:01;;;;;;;7.72;1.35;;;22.20;70.90;;;;;;5071224;28;20024;-60
2022/06/12 10:11:34;;;;;;;7.60;1.83;;;22.20;71.10;;;;;;5064896;28;20032;-60
2022/06/12 10:14:06;;;;;;;8.75;1.83;;;22.40;70.90;;;;;;5065356;28;20036;-60
2022/06/12 10:16:56;;;;;;;7.47;1.88;;;22.50;70.60;;;;;;5077227;28;20028;-60
2022/06/12 10:19:28;;;;;;;8.93;1.90;;;22.50;70.20;;;;;;5058688;28;20548;-60
2022/06/12 10:21:59;;;;;;;5.25;1.27;;;22.50;70.40;;;;;;5064430;28;20640;-60
2022/06/12 10:24:24;;;;;;;6.95;1.70;;;22.70;70.40;;;;;;5065620;28;20036;-60
2022/06/12 10:26:58;;;;;;;7.90;1.85;;;22.70;70.20;;;;;;5061147;28;20270;-60
2022/06/12 10:29:25;;;;;;;7.00;1.90;;;22.70;69.20;;;;;;5064213;28;20039;-60
2022/06/12 10:32:04;;;;;;;7.70;1.70;;;22.60;69.00;;;;;;5066592;28;20111;-60
2022/06/12 10:34:34;;;;;;;4.85;1.85;;;22.70;68.70;;;;;;5085161;28;20028;-60
2022/06/12 10:37:23;;;;;;;10.60;1.80;;;22.70;68.40;;;;;;5062427;28;20063;-60
2022/06/12 10:40:21;;;;;;;6.28;1.65;;;22.80;68.30;;;;;;5064253;28;20027;-60
2022/06/12 10:42:55;;;;;;;6.40;2.45;;;22.90;68.50;;;;;;5066455;28;20029;-60
2022/06/12 10:45:36;;;;;;;5.68;1.50;;;22.90;68.20;;;;;;5070817;28;20121;-60
2022/06/12 10:48:23;;;;;;;7.20;1.58;;;23.10;67.60;;;;;;5068106;28;20032;-60
2022/06/12 10:50:53;;;;;;;4.75;1.75;;;23.10;67.10;;;;;;5070686;28;20031;-60
2022/06/12 10:53:21;;;;;;;5.18;1.48;;;23.10;66.40;;;;;;5067216;28;20101;-60
2022/06/12 10:56:07;;;;;;;3.72;1.02;;;23.20;66.60;;;;;;5056621;28;20059;-60
2022/06/12 10:58:51;;;;;;;4.43;1.23;;;23.50;66.30;;;;;;5041941;28;20044;-60
2022/06/12 11:01:43;;;;;;;6.15;1.30;;;23.50;65.40;;;;;;5057658;28;20028;-60
2022/06/12 11:04:30;;;;;;;5.22;1.23;;;23.40;63.80;;;;;;5069138;28;20091;-60
2022/06/12 11:07:11;;;;;;;5.25;1.45;;;23.50;63.30;;;;;;5067545;28;20108;-60
2022/06/12 11:09:45;;;;;;;7.53;1.75;;;23.50;62.20;;;;;;5053154;28;20525;-60
2022/06/12 11:12:41;;;;;;;3.45;0.95;;;23.60;61.50;;;;;;5067284;28;20025;-61
2022/06/12 11:15:09;;;;;;;5.13;1.15;;;23.70;61.60;;;;;;5062275;28;20033;-60
2022/06/12 11:17:38;;;;;;;5.87;1.33;;;23.60;61.80;;;;;;5054458;28;20021;-60
2022/06/12 11:20:37;;;;;;;5.47;1.10;;;23.60;61.70;;;;;;5067232;28;20389;-60
2022/06/12 11:23:02;;;;;;;;;;;23.60;61.60;;;;;;5071517;28;20021;-60
2022/06/12 11:25:54;;;;;;;8.55;1.40;;;23.50;61.60;;;;;;5063377;28;19911;-60
2022/06/12 11:28:52;;;;;;;4.80;1.40;;;23.50;61.70;;;;;;5052463;28;20036;-60
2022/06/12 11:31:23;;;;;;;8.20;1.55;;;23.70;62.60;;;;;;5055102;28;20028;-60
2022/06/12 11:34:07;;;;;;;5.82;1.48;;;23.80;62.10;;;;;;5068138;28;20538;-60
2022/06/12 11:36:59;;;;;;;4.63;1.55;;;24.00;61.20;;;;;;5052570;28;20075;-60
2022/06/12 11:39:49;;;;;;;5.88;1.38;;;24.20;61.30;;;;;;5062949;28;20391;-60
2022/06/12 11:42:55;;;;;;;8.93;1.50;;;24.30;59.70;;;;;;5063780;28;20029;-60
2022/06/12 11:45:20;;;;;;;6.05;1.30;;;24.40;59.20;;;;;;5070345;28;20496;-60
2022/06/12 11:48:08;;;;;;;4.35;1.45;;;24.50;58.70;;;;;;5067526;28;20025;-60
2022/06/12 11:50:44;;;;;;;8.07;1.42;;;24.60;57.30;;;;;;5060826;28;20020;-60
2022/06/12 11:53:27;;;;;;;5.03;0.98;;;24.60;57.10;;;;;;5053212;28;20025;-60
2022/06/12 11:56:23;;;;;;;5.07;1.20;;;24.60;56.90;;;;;;5059221;28;20037;-60
2022/06/12 11:59:23;;;;;;;4.13;1.30;;;24.70;56.60;;;;;;5046860;28;20041;-60
2022/06/12 12:02:19;;;;;;;4.90;0.90;;;24.90;56.00;;;;;;5052009;28;20014;-60
2022/06/12 12:05:11;;;;;;;4.30;1.20;;;25.00;56.10;;;;;;5057866;28;20464;-60
2022/06/12 12:07:45;;;;;;;2.42;0.80;;;25.00;55.10;;;;;;5067654;28;20025;-60
2022/06/12 12:10:54;;;;;;;4.22;0.90;;;25.10;54.60;;;;;;5062435;28;20039;-60
2022/06/12 12:13:27;;;;;;;4.82;0.95;;;25.30;54.40;;;;;;5056933;28;20038;-60
2022/06/12 12:15:57;;;;;;;3.92;1.15;;;25.40;53.60;;;;;;5061921;28;20036;-60
2022/06/12 12:18:43;;;;;;;3.50;1.30;;;25.40;53.00;;;;;;5065249;28;20036;-60
2022/06/12 12:21:23;;;;;;;3.55;0.90;;;25.60;52.60;;;;;;5054626;28;20024;-61
2022/06/12 12:23:50;;;;;;;5.03;1.27;;;25.70;53.10;;;;;;5064186;28;20017;-60
2022/06/12 12:26:23;;;;;;;4.18;1.00;;;25.70;53.00;;;;;;5057346;28;20029;-60
2022/06/12 12:28:55;;;;;;;9.23;1.05;;;25.80;52.00;;;;;;5063484;28;20048;-60
2022/06/12 12:31:22;;;;;;;3.15;1.13;;;25.70;51.50;;;;;;5057118;28;20024;-61
2022/06/12 12:33:50;;;;;;;3.28;0.80;;;25.70;51.30;;;;;;5068450;28;20025;-60
2022/06/12 12:42:05;;;;;;;8.30;1.33;;;25.70;51.50;;;;;;5068420;28;20023;-61
2022/06/12 12:44:39;;;;;;;4.32;0.90;;;25.70;50.90;;;;;;5074482;28;21297;-60
2022/06/12 12:47:31;;;;;;;4.45;0.80;;;25.80;51.80;;;;;;5071128;28;20508;-60
2022/06/12 12:50:15;;;;;;;4.28;1.00;;;26.00;51.90;;;;;;5067816;28;20477;-60
2022/06/12 12:52:46;;;;;;;3.38;0.88;;;26.10;51.60;;;;;;5066749;28;20092;-60
2022/06/12 12:55:30;;;;;;;2.95;0.77;;;26.20;51.70;;;;;;5071267;28;20040;-60
2022/06/12 12:58:03;;;;;;;4.18;0.98;;;26.40;51.70;;;;;;5068483;28;20017;-61
2022/06/12 13:00:35;;;;;;;3.80;0.70;;;26.60;51.40;;;;;;5069952;28;20105;-60
2022/06/12 13:03:06;;;;;;;5.07;1.67;;;26.70;51.20;;;;;;5069367;28;20013;-60
2022/06/12 13:06:18;;;;;;;3.25;0.80;;;26.70;50.50;;;;;;5070171;28;20025;-60
2022/06/12 13:09:06;;;;;;;4.47;0.90;;;26.90;50.10;;;;;;5054605;28;20052;-60
2022/06/12 13:11:53;;;;;;;2.83;1.00;;;26.90;49.40;;;;;;5063931;28;20036;-60
2022/06/12 13:14:37;;;;;;;5.07;1.00;;;26.90;49.60;;;;;;5054891;28;20040;-61
2022/06/12 13:17:12;;;;;;;4.72;1.20;;;27.00;49.50;;;;;;5065213;28;20020;-60
2022/06/12 13:20:02;;;;;;;2.65;0.70;;;27.00;49.10;;;;;;5061569;28;20376;-61
2022/06/12 13:23:01;;;;;;;3.83;0.98;;;27.00;49.10;;;;;;5059572;28;20025;-60
2022/06/12 13:25:36;;;;;;;;;;;27.00;48.90;;;;;;5084024;28;20021;-60
2022/06/12 13:28:02;;;;;;;3.03;0.90;;;26.90;48.80;;;;;;5063158;28;19905;-61
2022/06/12 13:30:39;;;;;;;5.30;0.88;;;26.90;49.00;;;;;;5074596;28;20039;-60
2022/06/12 13:33:23;;;;;;;3.38;1.05;;;27.00;49.00;;;;;;5069601;28;20020;-60
2022/06/12 13:35:53;;;;;;;3.17;0.90;;;27.10;49.00;;;;;;5069389;28;20472;-60
2022/06/12 13:38:23;;;;;;;3.42;0.93;;;27.00;49.20;;;;;;5070714;28;20025;-60
2022/06/12 13:41:04;;;;;;;2.85;0.90;;;27.00;48.60;;;;;;5061955;28;20480;-60
2022/06/12 13:43:41;;;;;;;3.00;0.60;;;27.00;48.80;;;;;;5066238;28;20044;-60